createdAt,value
2022-11-28T00:01:02.948Z,9.69
2022-11-28T00:03:29.764Z,9.63
2022-11-28T00:05:56.594Z,9.55
2022-11-28T00:08:23.355Z,9.46
2022-11-28T00:10:50.082Z,9.47
2022-11-28T00:13:16.855Z,9.47
2022-11-28T00:15:43.593Z,9.49
2022-11-28T00:18:10.311Z,9.51
2022-11-28T00:20:40.267Z,9.55
2022-11-28T00:23:07.029Z,9.53
2022-11-28T00:25:33.676Z,9.47
2022-11-28T00:28:00.429Z,9.44
2022-11-28T00:30:27.176Z,9.36
2022-11-28T00:32:53.909Z,9.33
2022-11-28T00:35:20.512Z,9.33
2022-11-28T00:37:47.790Z,9.37
2022-11-28T00:40:14.485Z,9.26
2022-11-28T00:42:42.450Z,9.15
2022-11-28T00:45:12.426Z,9.11
2022-11-28T00:47:39.171Z,9.14
2022-11-28T00:50:06.627Z,9.26
2022-11-28T00:52:33.319Z,9.34
2022-11-28T00:55:00.348Z,9.30
2022-11-28T00:57:26.952Z,9.32
2022-11-28T00:59:53.597Z,9.34
2022-11-28T01:02:20.501Z,9.22
2022-11-28T01:04:47.280Z,9.12
2022-11-28T01:07:13.956Z,9.07
2022-11-28T01:09:40.659Z,9.05
2022-11-28T01:12:07.409Z,9.09
2022-11-28T01:14:34.073Z,9.14
2022-11-28T01:17:00.740Z,9.07
2022-11-28T01:19:27.769Z,9.14
2022-11-28T01:21:54.397Z,9.12
2022-11-28T01:24:21.101Z,9.03
2022-11-28T01:26:47.860Z,9.03
2022-11-28T01:29:14.581Z,9.04
2022-11-28T01:31:41.813Z,9.07
2022-11-28T01:34:08.528Z,9.11
2022-11-28T01:36:35.212Z,9.12
2022-11-28T01:39:01.822Z,9.02
2022-11-28T01:41:28.484Z,9.00
2022-11-28T01:44:28.555Z,8.88
2022-11-28T01:46:55.395Z,8.83
2022-11-28T01:49:29.078Z,8.86
2022-11-28T01:51:58.408Z,8.86
2022-11-28T01:54:25.189Z,8.96
2022-11-28T01:57:02.920Z,8.91
2022-11-28T01:59:33.022Z,8.82
2022-11-28T02:01:59.693Z,8.86
2022-11-28T02:04:26.868Z,8.78
2022-11-28T02:06:53.741Z,8.76
2022-11-28T02:09:20.420Z,8.75
2022-11-28T02:11:55.627Z,8.83
2022-11-28T02:14:50.127Z,8.75
2022-11-28T02:17:23.291Z,8.70
2022-11-28T02:20:17.164Z,8.68
2022-11-28T02:22:56.280Z,8.69
2022-11-28T02:25:44.417Z,8.61
2022-11-28T02:28:29.515Z,8.61
2022-11-28T02:31:21.782Z,8.68
2022-11-28T02:33:53.375Z,8.72
2022-11-28T02:36:28.877Z,8.75
2022-11-28T02:39:14.779Z,8.80
2022-11-28T02:41:47.664Z,8.70
2022-11-28T02:44:17.791Z,8.61
2022-11-28T02:46:57.426Z,8.56
2022-11-28T02:49:29.427Z,8.54
2022-11-28T02:51:58.533Z,8.56
2022-11-28T02:54:25.125Z,8.60
2022-11-28T02:56:52.586Z,8.65
2022-11-28T02:59:42.307Z,8.62
2022-11-28T03:02:28.406Z,8.69
2022-11-28T03:05:17.828Z,8.76
2022-11-28T03:07:57.979Z,8.67
2022-11-28T03:10:45.142Z,8.69
2022-11-28T03:13:26.685Z,8.75
2022-11-28T03:16:29.606Z,8.74
2022-11-28T03:19:14.552Z,8.77
2022-11-28T03:21:45.388Z,8.80
2022-11-28T03:24:23.027Z,8.75
2022-11-28T03:26:53.986Z,8.82
2022-11-28T03:29:25.933Z,8.92
2022-11-28T03:31:55.899Z,8.97
2022-11-28T03:34:24.646Z,9.04
2022-11-28T03:37:00.433Z,9.04
2022-11-28T03:39:30.319Z,9.12
2022-11-28T03:42:12.122Z,9.11
2022-11-28T03:44:45.366Z,8.98
2022-11-28T03:47:12.108Z,8.87
2022-11-28T03:49:40.620Z,8.93
2022-11-28T03:52:11.049Z,8.98
2022-11-28T03:54:42.586Z,9.02
2022-11-28T03:57:13.158Z,9.01
2022-11-28T03:59:47.844Z,8.94
2022-11-28T04:02:39.644Z,8.96
2022-11-28T04:05:23.428Z,9.00
2022-11-28T04:08:19.278Z,9.07
2022-11-28T04:10:57.682Z,9.17
2022-11-28T04:13:25.983Z,9.22
2022-11-28T04:16:07.627Z,9.24
2022-11-28T04:18:48.019Z,9.20
2022-11-28T04:21:30.603Z,9.20
2022-11-28T04:24:01.928Z,9.16
2022-11-28T04:26:32.228Z,9.23
2022-11-28T04:28:58.858Z,9.31
2022-11-28T04:31:25.541Z,9.32
2022-11-28T04:33:55.025Z,9.25
2022-11-28T04:36:21.613Z,9.19
2022-11-28T04:38:48.202Z,9.23
2022-11-28T04:41:16.785Z,9.31
2022-11-28T04:43:46.154Z,9.42
2022-11-28T04:46:18.797Z,9.45
2022-11-28T04:48:45.455Z,9.43
2022-11-28T04:51:14.846Z,9.44
2022-11-28T04:54:05.659Z,9.46
2022-11-28T04:56:38.277Z,9.44
2022-11-28T04:59:04.959Z,9.48
2022-11-28T05:01:31.586Z,9.54
2022-11-28T05:03:58.490Z,9.55
2022-11-28T05:06:33.149Z,9.57
2022-11-28T05:08:59.721Z,9.60
2022-11-28T05:11:26.335Z,9.62
2022-11-28T05:13:53.393Z,9.63
2022-11-28T05:16:20.168Z,9.63
2022-11-28T05:18:46.826Z,9.67
2022-11-28T05:21:13.468Z,9.71
2022-11-28T05:23:41.409Z,9.74
2022-11-28T05:26:09.532Z,9.75
2022-11-28T05:28:36.196Z,9.73
2022-11-28T05:31:02.880Z,9.72
2022-11-28T05:33:30.017Z,9.71
2022-11-28T05:35:57.686Z,9.65
2022-11-28T05:38:24.311Z,9.68
2022-11-28T05:40:50.915Z,9.78
2022-11-28T05:43:17.538Z,9.81
2022-11-28T05:45:44.576Z,9.75
2022-11-28T05:48:11.373Z,9.72
2022-11-28T05:50:41.173Z,9.75
2022-11-28T05:53:07.969Z,9.71
2022-11-28T05:55:34.652Z,9.73
2022-11-28T05:58:01.279Z,9.73
2022-11-28T06:00:27.976Z,9.85
2022-11-28T06:02:59.884Z,9.93
2022-11-28T06:05:42.240Z,10.02
2022-11-28T06:08:11.505Z,9.87
2022-11-28T06:10:38.137Z,9.91
2022-11-28T06:13:04.780Z,9.97
2022-11-28T06:15:34.884Z,10.01
2022-11-28T06:18:03.997Z,10.05
2022-11-28T06:20:30.625Z,10.06
2022-11-28T06:22:57.238Z,10.10
2022-11-28T06:25:23.809Z,10.08
2022-11-28T06:27:51.736Z,10.08
2022-11-28T06:30:18.385Z,10.09
2022-11-28T06:32:45.012Z,10.06
2022-11-28T06:35:11.597Z,10.01
2022-11-28T06:37:38.230Z,10.07
2022-11-28T06:40:05.606Z,10.04
2022-11-28T06:42:32.192Z,10.07
2022-11-28T06:44:58.765Z,10.12
2022-11-28T06:47:25.727Z,10.11
2022-11-28T06:49:52.356Z,10.09
2022-11-28T06:52:18.940Z,10.12
2022-11-28T06:54:45.562Z,10.08
2022-11-28T06:57:12.153Z,10.14
2022-11-28T06:59:38.772Z,10.08
2022-11-28T07:02:07.868Z,10.10
2022-11-28T07:04:34.770Z,10.14
2022-11-28T07:07:01.467Z,10.09
2022-11-28T07:09:28.063Z,10.02
2022-11-28T07:11:54.719Z,10.06
2022-11-28T07:14:21.303Z,10.09
2022-11-28T07:16:47.917Z,10.16
2022-11-28T07:19:14.573Z,10.06
2022-11-28T07:21:41.162Z,10.18
2022-11-28T07:24:07.786Z,10.23
2022-11-28T07:26:34.494Z,10.29
2022-11-28T07:29:01.096Z,10.50
2022-11-28T07:31:27.742Z,10.70
2022-11-28T07:33:54.419Z,10.80
2022-11-28T07:36:22.711Z,10.83
2022-11-28T07:38:57.278Z,10.88
2022-11-28T07:41:26.802Z,10.94
2022-11-28T07:44:01.401Z,11.06
2022-11-28T07:46:28.743Z,11.02
2022-11-28T07:48:55.439Z,11.03
2022-11-28T07:51:32.565Z,11.08
2022-11-28T07:53:59.604Z,11.15
2022-11-28T07:56:39.446Z,11.27
2022-11-28T07:59:14.902Z,11.30
2022-11-28T08:01:41.574Z,11.30
2022-11-28T08:04:08.681Z,11.40
2022-11-28T08:06:40.515Z,11.45
2022-11-28T08:09:07.190Z,11.46
2022-11-28T08:11:33.920Z,11.54
2022-11-28T08:14:00.629Z,11.63
2022-11-28T08:16:27.982Z,11.67
2022-11-28T08:18:55.109Z,11.73
2022-11-28T08:21:24.714Z,11.80
2022-11-28T08:23:52.318Z,11.90
2022-11-28T08:26:20.502Z,11.89
2022-11-28T08:28:47.413Z,11.98
2022-11-28T08:31:18.822Z,12.08
2022-11-28T08:33:46.009Z,12.15
2022-11-28T08:36:13.208Z,12.24
2022-11-28T08:38:40.507Z,12.26
2022-11-28T08:41:09.345Z,12.27
2022-11-28T08:43:36.151Z,12.39
2022-11-28T08:46:03.842Z,12.46
2022-11-28T08:48:30.440Z,12.37
2022-11-28T08:50:57.255Z,12.44
2022-11-28T08:53:23.891Z,12.53
2022-11-28T08:55:50.574Z,12.63
2022-11-28T08:58:17.170Z,12.68
2022-11-28T09:00:43.763Z,12.69
2022-11-28T09:03:18.220Z,12.68
2022-11-28T09:05:45.568Z,12.72
2022-11-28T09:08:15.843Z,12.75
2022-11-28T09:10:42.498Z,12.77
2022-11-28T09:13:09.120Z,12.80
2022-11-28T09:15:41.939Z,12.87
2022-11-28T09:18:08.572Z,12.84
2022-11-28T09:20:35.415Z,12.91
2022-11-28T09:23:01.998Z,13.03
2022-11-28T09:25:28.624Z,13.14
2022-11-28T09:27:55.266Z,13.08
2022-11-28T09:30:21.866Z,12.86
2022-11-28T09:32:49.283Z,12.92
2022-11-28T09:35:16.938Z,12.96
2022-11-28T09:37:43.757Z,13.04
2022-11-28T09:40:17.954Z,13.13
2022-11-28T09:42:44.666Z,12.98
2022-11-28T09:45:14.617Z,12.96
2022-11-28T09:47:41.856Z,13.04
2022-11-28T09:50:15.313Z,13.15
2022-11-28T09:53:03.211Z,13.12
2022-11-28T09:55:36.352Z,13.07
2022-11-28T09:58:29.758Z,13.11
2022-11-28T10:01:10.757Z,13.19
2022-11-28T10:03:49.025Z,13.25
2022-11-28T10:06:25.972Z,13.21
2022-11-28T10:09:15.223Z,13.23
2022-11-28T10:12:03.320Z,13.23
2022-11-28T10:14:45.432Z,13.21
2022-11-28T10:17:17.901Z,13.27
2022-11-28T10:20:06.421Z,13.34
2022-11-28T10:22:46.673Z,13.36
2022-11-28T10:25:29.394Z,13.34
2022-11-28T10:27:56.003Z,13.33
2022-11-28T10:30:26.136Z,13.33
2022-11-28T10:33:06.533Z,13.40
2022-11-28T10:35:42.585Z,13.38
2022-11-28T10:38:13.197Z,13.30
2022-11-28T10:40:53.979Z,13.31
2022-11-28T10:43:41.134Z,13.39
2022-11-28T10:46:35.586Z,13.41
2022-11-28T10:49:30.628Z,13.43
2022-11-28T10:52:15.471Z,13.44
2022-11-28T10:54:47.809Z,13.49
2022-11-28T10:57:18.264Z,13.56
2022-11-28T11:00:00.011Z,13.56
2022-11-28T11:02:26.448Z,13.61
2022-11-28T11:04:53.106Z,13.56
2022-11-28T11:07:25.147Z,13.63
2022-11-28T11:09:55.810Z,13.66
2022-11-28T11:12:26.242Z,13.73
2022-11-28T11:14:53.008Z,13.78
2022-11-28T11:17:36.179Z,13.75
2022-11-28T11:20:25.378Z,13.65
2022-11-28T11:23:00.251Z,13.74
2022-11-28T11:25:31.446Z,13.81
2022-11-28T11:28:02.641Z,13.77
2022-11-28T11:30:34.849Z,13.78
2022-11-28T11:33:02.168Z,13.86
2022-11-28T11:35:29.986Z,13.89
2022-11-28T11:38:33.500Z,13.93
2022-11-28T11:41:30.691Z,13.91
2022-11-28T11:43:58.276Z,13.58
2022-11-28T11:46:24.959Z,13.63
2022-11-28T11:48:52.536Z,13.75
2022-11-28T11:51:26.735Z,13.75
2022-11-28T11:54:02.179Z,13.92
2022-11-28T11:56:30.979Z,13.92
2022-11-28T11:58:57.609Z,14.02
2022-11-28T12:01:24.269Z,13.91
2022-11-28T12:03:59.408Z,13.92
2022-11-28T12:06:32.367Z,13.99
2022-11-28T12:09:08.021Z,14.11
2022-11-28T12:11:36.004Z,14.26
2022-11-28T12:14:24.327Z,14.21
2022-11-28T12:16:50.901Z,14.19
2022-11-28T12:19:31.106Z,14.30
2022-11-28T12:22:16.249Z,14.39
2022-11-28T12:25:11.794Z,14.50
2022-11-28T12:27:59.557Z,14.61
2022-11-28T12:31:07.567Z,14.65
2022-11-28T12:34:00.557Z,14.72
2022-11-28T12:36:31.424Z,14.75
2022-11-28T12:39:37.460Z,14.73
2022-11-28T12:42:16.511Z,14.52
2022-11-28T12:44:49.933Z,14.63
2022-11-28T12:47:35.201Z,14.61
2022-11-28T12:50:10.562Z,14.68
2022-11-28T12:52:55.935Z,14.66
2022-11-28T12:55:37.881Z,14.62
2022-11-28T12:58:35.399Z,14.68
2022-11-28T13:01:16.906Z,14.64
2022-11-28T13:04:02.232Z,14.59
2022-11-28T13:06:36.505Z,14.47
2022-11-28T13:09:24.780Z,14.44
2022-11-28T13:12:12.217Z,14.43
2022-11-28T13:14:41.648Z,14.35
2022-11-28T13:17:22.580Z,14.31
2022-11-28T13:19:59.661Z,14.32
2022-11-28T13:22:41.590Z,14.37
2022-11-28T13:25:26.777Z,14.40
2022-11-28T13:28:18.899Z,14.12
2022-11-28T13:31:19.935Z,14.11
2022-11-28T13:33:53.865Z,14.01
2022-11-28T13:39:36.305Z,14.08
2022-11-28T13:42:36.565Z,13.98
2022-11-28T13:45:00.781Z,13.85
2022-11-28T13:47:30.034Z,13.81
2022-11-28T13:50:34.594Z,13.87
2022-11-28T13:53:02.938Z,13.93
2022-11-28T13:55:43.145Z,13.85
2022-11-28T13:58:22.323Z,13.95
2022-11-28T14:01:11.413Z,13.60
2022-11-28T14:03:51.332Z,13.21
2022-11-28T14:06:25.137Z,13.31
2022-11-28T14:09:20.621Z,13.30
2022-11-28T14:12:08.365Z,13.40
2022-11-28T14:15:01.930Z,13.48
2022-11-28T14:17:37.607Z,13.47
2022-11-28T14:20:25.541Z,13.49
2022-11-28T14:23:14.290Z,13.44
2022-11-28T14:25:45.179Z,13.34
2022-11-28T14:28:31.641Z,13.32
2022-11-28T14:31:12.987Z,13.50
2022-11-28T14:33:40.568Z,13.52
2022-11-28T14:36:34.166Z,13.52
2022-11-28T14:39:11.222Z,13.23
2022-11-28T14:42:05.730Z,13.03
2022-11-28T14:44:57.056Z,13.04
2022-11-28T14:47:33.746Z,13.03
2022-11-28T14:50:09.135Z,12.96
2022-11-28T14:52:42.447Z,12.84
2022-11-28T14:55:11.936Z,12.73
2022-11-28T14:57:51.564Z,12.80
2022-11-28T15:00:23.870Z,12.85
2022-11-28T15:03:03.572Z,12.77
2022-11-28T15:05:46.028Z,12.81
2022-11-28T15:08:26.653Z,12.85
2022-11-28T15:11:14.792Z,12.86
2022-11-28T15:13:54.588Z,12.87
2022-11-28T15:16:21.276Z,12.79
2022-11-28T15:18:50.920Z,12.85
2022-11-28T15:21:18.534Z,12.80
2022-11-28T15:23:45.235Z,12.87
2022-11-28T15:26:23.160Z,12.73
2022-11-28T15:28:49.762Z,12.77
2022-11-28T15:31:21.026Z,12.69
2022-11-28T15:33:48.142Z,12.63
2022-11-28T15:36:26.409Z,12.61
2022-11-28T15:38:53.354Z,12.43
2022-11-28T15:41:21.855Z,12.34
2022-11-28T15:43:48.474Z,12.14
2022-11-28T15:46:21.020Z,12.30
2022-11-28T15:48:51.766Z,12.02
2022-11-28T15:51:29.328Z,12.05
2022-11-28T15:53:56.280Z,12.10
2022-11-28T15:56:23.085Z,12.07
2022-11-28T15:58:49.673Z,11.77
2022-11-28T16:01:20.001Z,11.75
2022-11-28T16:03:59.165Z,11.58
2022-11-28T16:06:28.724Z,11.63
2022-11-28T16:08:56.847Z,11.59
2022-11-28T16:11:24.888Z,11.75
2022-11-28T16:13:52.431Z,11.69
2022-11-28T16:16:21.035Z,11.67
2022-11-28T16:19:04.675Z,11.81
2022-11-28T16:21:33.128Z,11.77
2022-11-28T16:24:00.784Z,11.69
2022-11-28T16:26:27.300Z,11.83
2022-11-28T16:29:00.078Z,11.79
2022-11-28T16:31:26.820Z,11.98
2022-11-28T16:33:53.513Z,12.10
2022-11-28T16:36:36.531Z,12.16
2022-11-28T16:39:16.189Z,12.12
2022-11-28T16:41:53.495Z,12.12
2022-11-28T16:44:20.828Z,12.10
2022-11-28T16:46:59.666Z,12.15
2022-11-28T16:49:31.993Z,12.14
2022-11-28T16:52:22.151Z,12.13
2022-11-28T16:54:49.530Z,12.09
2022-11-28T16:57:16.353Z,12.15
2022-11-28T16:59:43.758Z,12.15
2022-11-28T17:02:24.155Z,12.15
2022-11-28T17:04:51.566Z,12.10
2022-11-28T17:07:20.280Z,12.06
2022-11-28T17:09:47.676Z,12.13
2022-11-28T17:12:28.223Z,12.18
2022-11-28T17:14:54.999Z,12.29
2022-11-28T17:17:22.130Z,12.32
2022-11-28T17:19:48.816Z,12.29
2022-11-28T17:22:17.044Z,12.25
2022-11-28T17:24:43.725Z,12.30
2022-11-28T17:27:12.089Z,12.33
2022-11-28T17:29:38.669Z,12.31
2022-11-28T17:32:05.517Z,12.31
2022-11-28T17:34:33.478Z,12.14
2022-11-28T17:37:00.984Z,12.22
2022-11-28T17:39:27.704Z,12.31
2022-11-28T17:41:54.313Z,12.27
2022-11-28T17:44:22.666Z,12.24
2022-11-28T17:46:49.972Z,12.26
2022-11-28T17:49:16.621Z,12.24
2022-11-28T17:51:43.269Z,12.26
2022-11-28T17:54:13.361Z,12.35
2022-11-28T17:56:40.048Z,12.28
2022-11-28T17:59:06.662Z,12.31
2022-11-28T18:01:33.359Z,12.43
2022-11-28T18:03:59.994Z,12.24
2022-11-28T18:06:26.623Z,12.31
2022-11-28T18:08:53.221Z,12.33
2022-11-28T18:11:19.816Z,12.35
2022-11-28T18:13:46.454Z,12.36
2022-11-28T18:16:14.012Z,12.43
2022-11-28T18:18:40.719Z,12.36
2022-11-28T18:21:07.500Z,12.41
2022-11-28T18:23:35.299Z,12.35
2022-11-28T18:26:06.232Z,12.45
2022-11-28T18:28:32.816Z,12.43
2022-11-28T18:30:59.399Z,12.46
2022-11-28T18:33:26.013Z,12.48
2022-11-28T18:35:52.668Z,12.32
2022-11-28T18:38:19.242Z,12.24
2022-11-28T18:40:45.828Z,12.17
2022-11-28T18:43:12.479Z,12.26
2022-11-28T18:45:39.097Z,12.34
2022-11-28T18:48:05.728Z,12.05
2022-11-28T18:50:32.320Z,12.26
2022-11-28T18:52:58.971Z,12.39
2022-11-28T18:55:25.663Z,12.35
2022-11-28T18:57:52.305Z,12.37
2022-11-28T19:00:19.576Z,12.27
2022-11-28T19:02:46.241Z,12.21
2022-11-28T19:05:12.864Z,12.10
2022-11-28T19:07:39.506Z,11.99
2022-11-28T19:10:06.650Z,11.81
2022-11-28T19:12:33.301Z,11.92
2022-11-28T19:15:02.378Z,12.07
2022-11-28T19:17:29.532Z,12.24
2022-11-28T19:19:56.208Z,12.28
2022-11-28T19:22:22.822Z,12.27
2022-11-28T19:24:49.441Z,12.37
2022-11-28T19:27:16.089Z,12.35
2022-11-28T19:29:43.010Z,12.49
2022-11-28T19:32:09.918Z,12.52
2022-11-28T19:34:36.571Z,12.41
2022-11-28T19:37:03.152Z,12.49
2022-11-28T19:39:29.757Z,12.46
2022-11-28T19:41:56.427Z,12.42
2022-11-28T19:44:23.204Z,12.45
2022-11-28T19:46:49.981Z,12.45
2022-11-28T19:49:18.532Z,12.43
2022-11-28T19:51:45.652Z,12.43
2022-11-28T19:54:12.345Z,12.47
2022-11-28T19:56:39.103Z,12.38
2022-11-28T19:59:05.813Z,12.36
2022-11-28T20:01:32.518Z,12.36
2022-11-28T20:03:59.166Z,12.39
2022-11-28T20:06:27.259Z,12.35
2022-11-28T20:08:54.302Z,12.15
2022-11-28T20:11:24.268Z,12.11
2022-11-28T20:14:01.864Z,12.15
2022-11-28T20:16:30.599Z,12.23
2022-11-28T20:18:57.331Z,12.06
2022-11-28T20:21:23.907Z,11.93
2022-11-28T20:23:51.940Z,11.99
2022-11-28T20:26:19.494Z,11.87
2022-11-28T20:28:46.217Z,11.75
2022-11-28T20:31:20.454Z,11.70
2022-11-28T20:33:47.947Z,11.78
2022-11-28T20:36:16.070Z,11.84
2022-11-28T20:38:42.689Z,11.95
2022-11-28T20:41:10.073Z,12.06
2022-11-28T20:43:37.672Z,12.10
2022-11-28T20:46:09.227Z,12.03
2022-11-28T20:48:35.927Z,11.98
2022-11-28T20:51:02.554Z,12.02
2022-11-28T20:53:29.216Z,11.98
2022-11-28T20:56:02.647Z,12.12
2022-11-28T20:58:29.727Z,12.00
2022-11-28T21:00:56.425Z,12.08
2022-11-28T21:03:23.153Z,12.18
2022-11-28T21:05:49.838Z,12.31
2022-11-28T21:08:16.432Z,12.27
2022-11-28T21:10:43.069Z,12.35
2022-11-28T21:13:09.697Z,12.32
2022-11-28T21:15:43.116Z,12.37
2022-11-28T21:18:09.759Z,12.26
2022-11-28T21:20:44.237Z,12.30
2022-11-28T21:23:14.661Z,12.18
2022-11-28T21:25:41.551Z,11.99
2022-11-28T21:28:08.549Z,11.96
2022-11-28T21:30:40.437Z,12.11
2022-11-28T21:33:07.089Z,12.15
2022-11-28T21:35:34.683Z,12.14
2022-11-28T21:38:01.296Z,12.18
2022-11-28T21:40:27.883Z,12.23
2022-11-28T21:42:54.514Z,12.22
2022-11-28T21:45:21.162Z,12.28
2022-11-28T21:47:47.803Z,12.22
2022-11-28T21:50:14.437Z,12.21
2022-11-28T21:52:41.034Z,12.22
2022-11-28T21:55:07.681Z,12.24
2022-11-28T21:57:34.285Z,12.23
2022-11-28T22:00:00.924Z,12.25
2022-11-28T22:02:35.001Z,12.30
2022-11-28T22:05:01.620Z,12.31
2022-11-28T22:07:28.283Z,12.27
2022-11-28T22:09:54.947Z,12.27
2022-11-28T22:12:21.658Z,12.03
2022-11-28T22:14:48.414Z,12.10
2022-11-28T22:17:15.332Z,12.08
2022-11-28T22:19:41.921Z,12.09
2022-11-28T22:22:08.509Z,12.13
2022-11-28T22:24:35.158Z,12.14
2022-11-28T22:27:01.866Z,12.14
2022-11-28T22:29:28.605Z,12.14
2022-11-28T22:31:55.285Z,12.13
2022-11-28T22:34:22.035Z,12.14
2022-11-28T22:36:48.680Z,12.09
2022-11-28T22:39:15.271Z,12.07
2022-11-28T22:41:41.902Z,12.10
2022-11-28T22:44:09.839Z,12.10
2022-11-28T22:46:36.467Z,12.06
2022-11-28T22:49:03.293Z,12.07
2022-11-28T22:51:30.232Z,12.11
2022-11-28T22:53:57.890Z,12.07
2022-11-28T22:56:25.740Z,12.03
2022-11-28T22:58:52.366Z,12.04
2022-11-28T23:01:23.722Z,12.09
2022-11-28T23:03:50.412Z,12.17
2022-11-28T23:06:25.143Z,12.14
2022-11-28T23:08:51.870Z,12.10
2022-11-28T23:11:22.961Z,12.14
2022-11-28T23:13:49.725Z,12.21
2022-11-28T23:16:30.416Z,12.23
2022-11-28T23:18:58.663Z,12.25
2022-11-28T23:21:25.423Z,12.23
2022-11-28T23:23:52.055Z,12.24
2022-11-28T23:26:21.018Z,12.20
2022-11-28T23:28:47.703Z,12.22
2022-11-28T23:31:19.640Z,12.14
2022-11-28T23:33:46.305Z,12.11
2022-11-28T23:36:18.185Z,12.16
2022-11-28T23:38:45.153Z,12.15
2022-11-28T23:41:12.185Z,12.18
2022-11-28T23:43:38.912Z,12.13
2022-11-28T23:46:06.002Z,12.16
2022-11-28T23:48:32.673Z,12.12
2022-11-28T23:50:59.315Z,12.20
2022-11-28T23:53:25.904Z,12.20
2022-11-28T23:55:53.907Z,12.15
2022-11-28T23:58:20.499Z,12.17
